createdAt,value
2023-05-08T00:00:09.155Z,30.75
2023-05-08T00:02:36.668Z,32.00
2023-05-08T00:05:04.311Z,35.55
2023-05-08T00:07:31.794Z,29.98
2023-05-08T00:09:59.175Z,27.98
2023-05-08T00:12:26.684Z,29.65
2023-05-08T00:14:54.066Z,35.30
2023-05-08T00:17:21.521Z,30.08
2023-05-08T00:19:49.076Z,27.73
2023-05-08T00:22:16.548Z,32.85
2023-05-08T00:24:44.541Z,34.05
2023-05-08T00:27:13.087Z,36.60
2023-05-08T00:29:40.602Z,31.40
2023-05-08T00:32:10.947Z,31.60
2023-05-08T00:34:38.634Z,31.88
2023-05-08T00:37:06.274Z,33.10
2023-05-08T00:39:33.684Z,32.63
2023-05-08T00:42:01.218Z,36.78
2023-05-08T00:44:28.697Z,32.42
2023-05-08T00:46:56.112Z,30.63
2023-05-08T00:49:23.776Z,35.38
2023-05-08T00:51:52.603Z,39.03
2023-05-08T00:54:20.433Z,46.53
2023-05-08T00:56:47.965Z,35.38
2023-05-08T00:59:16.991Z,34.95
2023-05-08T01:01:45.033Z,35.35
2023-05-08T01:04:12.480Z,35.97
2023-05-08T01:06:40.095Z,41.58
2023-05-08T01:09:07.958Z,40.13
2023-05-08T01:11:45.779Z,38.20
2023-05-08T01:14:15.838Z,33.88
2023-05-08T01:17:06.534Z,46.92
2023-05-08T01:19:40.084Z,43.20
2023-05-08T01:24:53.069Z,46.08
2023-05-08T01:27:39.514Z,42.30
2023-05-08T01:30:07.213Z,46.97
2023-05-08T01:32:40.284Z,42.63
2023-05-08T01:35:13.752Z,44.33
2023-05-08T01:38:00.195Z,48.13
2023-05-08T01:40:35.915Z,43.13
2023-05-08T01:43:22.332Z,42.33
2023-05-08T01:45:52.530Z,45.40
2023-05-08T01:48:25.654Z,48.58
2023-05-08T01:50:56.209Z,49.50
2023-05-08T01:53:52.846Z,57.22
2023-05-08T01:56:22.883Z,51.70
2023-05-08T01:58:52.834Z,46.13
2023-05-08T02:01:23.237Z,45.50
2023-05-08T02:03:52.849Z,42.00
2023-05-08T02:06:21.972Z,52.72
2023-05-08T02:08:50.073Z,50.13
2023-05-08T02:11:19.057Z,51.65
2023-05-08T02:13:48.517Z,51.08
2023-05-08T02:16:16.620Z,45.42
2023-05-08T02:18:45.444Z,49.28
2023-05-08T02:21:15.356Z,62.60
2023-05-08T02:23:44.358Z,57.72
2023-05-08T02:26:12.492Z,52.63
2023-05-08T02:28:40.933Z,50.55
2023-05-08T02:31:09.597Z,52.03
2023-05-08T02:33:37.769Z,51.58
2023-05-08T02:36:05.512Z,51.60
2023-05-08T02:38:33.757Z,51.65
2023-05-08T02:41:02.951Z,58.30
2023-05-08T02:43:30.463Z,47.88
2023-05-08T02:46:19.334Z,52.17
2023-05-08T02:48:46.579Z,64.40
2023-05-08T02:51:16.969Z,47.63
2023-05-08T02:53:51.935Z,50.63
2023-05-08T02:56:23.063Z,53.75
2023-05-08T02:59:01.775Z,45.78
2023-05-08T03:01:32.647Z,44.28
2023-05-08T03:04:00.381Z,67.07
2023-05-08T03:06:27.998Z,63.05
2023-05-08T03:08:57.983Z,51.85
2023-05-08T03:11:29.111Z,66.22
2023-05-08T03:13:57.875Z,54.83
2023-05-08T03:16:26.656Z,57.03
2023-05-08T03:18:59.637Z,53.33
2023-05-08T03:21:28.740Z,50.67
2023-05-08T03:23:57.943Z,48.00
2023-05-08T03:26:26.250Z,47.47
2023-05-08T03:28:54.485Z,53.88
2023-05-08T03:31:26.607Z,44.28
2023-05-08T03:33:54.996Z,49.15
2023-05-08T03:36:25.096Z,46.85
2023-05-08T03:38:52.467Z,47.08
2023-05-08T03:41:22.606Z,43.15
2023-05-08T03:43:50.912Z,42.13
2023-05-08T03:46:18.986Z,51.67
2023-05-08T03:48:47.788Z,52.15
2023-05-08T03:51:19.622Z,48.15
2023-05-08T03:53:47.049Z,51.20
2023-05-08T03:56:15.000Z,56.90
2023-05-08T03:58:49.137Z,48.83
2023-05-08T04:01:24.667Z,47.42
2023-05-08T04:04:31.558Z,59.42
2023-05-08T04:07:11.725Z,47.65
2023-05-08T04:09:59.407Z,52.50
2023-05-08T04:13:08.794Z,53.22
2023-05-08T04:16:01.005Z,47.75
2023-05-08T04:18:30.428Z,42.67
2023-05-08T04:21:03.298Z,56.45
2023-05-08T04:23:31.594Z,50.17
2023-05-08T04:26:01.660Z,50.13
2023-05-08T04:28:29.761Z,47.85
2023-05-08T04:30:57.710Z,49.03
2023-05-08T04:33:25.174Z,51.20
2023-05-08T04:35:52.760Z,55.60
2023-05-08T04:38:19.937Z,54.80
2023-05-08T04:40:47.148Z,51.40
2023-05-08T04:43:14.251Z,53.95
2023-05-08T04:45:41.532Z,46.22
2023-05-08T04:48:08.839Z,49.33
2023-05-08T04:50:35.967Z,56.67
2023-05-08T04:53:02.877Z,50.03
2023-05-08T04:55:30.265Z,51.58
2023-05-08T04:57:57.594Z,53.67
2023-05-08T05:00:24.423Z,52.85
2023-05-08T05:02:52.375Z,59.40
2023-05-08T05:05:19.521Z,55.55
2023-05-08T05:07:46.793Z,66.88
2023-05-08T05:10:15.134Z,58.47
2023-05-08T05:12:42.296Z,52.75
2023-05-08T05:15:10.392Z,55.15
2023-05-08T05:17:38.935Z,56.03
2023-05-08T05:20:08.774Z,71.43
2023-05-08T05:22:36.124Z,51.75
2023-05-08T05:25:03.930Z,64.30
2023-05-08T05:27:30.970Z,65.80
2023-05-08T05:30:01.376Z,55.83
2023-05-08T05:32:28.647Z,60.42
2023-05-08T05:34:56.611Z,64.50
2023-05-08T05:37:23.675Z,56.22
2023-05-08T05:39:51.732Z,65.93
2023-05-08T05:42:19.574Z,70.72
2023-05-08T05:44:46.848Z,54.65
2023-05-08T05:47:14.425Z,59.30
2023-05-08T05:49:46.857Z,70.28
2023-05-08T05:52:15.158Z,66.07
2023-05-08T05:54:42.677Z,51.63
2023-05-08T05:57:11.219Z,48.42
2023-05-08T05:59:38.511Z,45.75
2023-05-08T06:02:10.514Z,51.30
2023-05-08T06:04:41.554Z,45.80
2023-05-08T06:07:10.662Z,39.22
2023-05-08T06:09:37.725Z,39.03
2023-05-08T06:12:08.454Z,35.70
2023-05-08T06:14:35.838Z,38.72
2023-05-08T06:17:03.059Z,42.95
2023-05-08T06:19:31.272Z,39.42
2023-05-08T06:21:58.256Z,36.83
2023-05-08T06:24:25.456Z,41.70
2023-05-08T06:26:52.266Z,38.78
2023-05-08T06:29:19.103Z,31.60
2023-05-08T06:31:46.557Z,35.55
2023-05-08T06:34:13.783Z,44.92
2023-05-08T06:36:41.417Z,29.55
2023-05-08T06:39:08.604Z,30.20
2023-05-08T06:41:35.456Z,28.98
2023-05-08T06:44:02.321Z,33.97
2023-05-08T06:46:29.931Z,35.78
2023-05-08T06:48:57.150Z,32.10
2023-05-08T06:51:24.065Z,27.38
2023-05-08T06:53:51.063Z,32.13
2023-05-08T06:56:17.981Z,33.30
2023-05-08T06:58:48.389Z,31.65
2023-05-08T07:01:21.077Z,27.33
2023-05-08T07:03:48.160Z,34.05
2023-05-08T07:06:15.323Z,32.60
2023-05-08T07:08:42.505Z,31.95
2023-05-08T07:11:10.268Z,40.00
2023-05-08T07:13:37.332Z,30.70
2023-05-08T07:16:10.902Z,35.38
2023-05-08T07:18:38.510Z,49.45
2023-05-08T07:21:06.029Z,49.90
2023-05-08T07:23:36.985Z,75.32
2023-05-08T07:26:11.141Z,77.97
2023-05-08T07:28:42.327Z,85.70
2023-05-08T07:31:09.358Z,81.40
2023-05-08T07:33:36.563Z,79.78
2023-05-08T07:36:03.751Z,75.63
2023-05-08T07:38:31.039Z,72.60
2023-05-08T07:40:59.580Z,74.72
2023-05-08T07:43:26.673Z,66.20
2023-05-08T07:45:53.949Z,70.28
2023-05-08T07:48:21.179Z,68.90
2023-05-08T07:50:50.296Z,83.53
2023-05-08T07:53:17.630Z,75.90
2023-05-08T07:55:44.521Z,73.25
2023-05-08T07:58:11.515Z,63.63
2023-05-08T08:00:39.682Z,71.03
2023-05-08T08:03:07.340Z,62.90
2023-05-08T08:05:34.474Z,65.25
2023-05-08T08:08:01.520Z,56.72
2023-05-08T08:10:31.640Z,62.45
2023-05-08T08:13:06.829Z,61.95
2023-05-08T08:15:36.646Z,67.72
2023-05-08T08:18:03.575Z,77.07
2023-05-08T08:20:30.702Z,66.93
2023-05-08T08:22:58.154Z,67.03
2023-05-08T08:25:25.544Z,69.97
2023-05-08T08:27:54.892Z,62.22
2023-05-08T08:30:22.058Z,65.90
2023-05-08T08:32:49.399Z,75.25
2023-05-08T08:35:16.888Z,66.03
2023-05-08T08:37:44.646Z,59.97
2023-05-08T08:40:12.239Z,55.67
2023-05-08T08:42:39.465Z,64.72
2023-05-08T08:45:07.196Z,63.15
2023-05-08T08:47:38.061Z,68.05
2023-05-08T08:50:06.952Z,67.50
2023-05-08T08:53:00.541Z,74.40
2023-05-08T08:55:29.094Z,64.22
2023-05-08T08:57:59.073Z,57.03
2023-05-08T09:00:30.099Z,58.75
2023-05-08T09:02:57.561Z,52.63
2023-05-08T09:05:26.591Z,56.22
2023-05-08T09:07:57.535Z,61.53
2023-05-08T09:10:25.730Z,53.50
2023-05-08T09:13:06.076Z,57.10
2023-05-08T09:15:33.964Z,59.90
2023-05-08T09:18:04.341Z,63.42
2023-05-08T09:20:35.678Z,56.85
2023-05-08T09:23:03.682Z,48.80
2023-05-08T09:26:03.310Z,69.07
2023-05-08T09:28:30.424Z,65.72
2023-05-08T09:30:59.796Z,71.28
2023-05-08T09:33:29.784Z,76.82
2023-05-08T09:35:57.878Z,61.33
2023-05-08T09:38:37.739Z,62.08
2023-05-08T09:41:16.403Z,64.70
2023-05-08T09:43:44.924Z,64.70
2023-05-08T09:46:27.486Z,59.70
2023-05-08T09:49:00.303Z,48.42
2023-05-08T09:51:29.772Z,44.30
2023-05-08T09:53:59.157Z,43.67
2023-05-08T09:56:30.079Z,42.75
2023-05-08T09:58:57.097Z,44.47
2023-05-08T10:01:31.661Z,43.05
2023-05-08T10:03:59.456Z,32.88
2023-05-08T10:06:28.740Z,32.42
2023-05-08T10:09:17.471Z,37.60
2023-05-08T10:11:52.434Z,35.72
2023-05-08T10:14:23.138Z,27.08
2023-05-08T10:16:53.021Z,28.48
2023-05-08T10:19:25.220Z,23.45
2023-05-08T10:21:55.122Z,25.70
2023-05-08T10:24:27.036Z,28.73
2023-05-08T10:27:08.948Z,25.45
2023-05-08T10:29:51.164Z,26.88
2023-05-08T10:32:20.629Z,30.02
2023-05-08T10:34:53.127Z,30.50
2023-05-08T10:37:20.467Z,26.27
2023-05-08T10:39:48.614Z,27.90
2023-05-08T10:42:15.953Z,29.60
2023-05-08T10:44:44.746Z,27.15
2023-05-08T10:47:39.480Z,28.05
2023-05-08T10:50:34.273Z,31.50
2023-05-08T10:53:11.926Z,32.05
2023-05-08T10:55:42.481Z,25.38
2023-05-08T10:58:31.818Z,28.95
2023-05-08T11:01:07.428Z,28.58
2023-05-08T11:03:50.890Z,33.70
2023-05-08T11:06:39.067Z,33.53
2023-05-08T11:09:11.944Z,27.20
2023-05-08T11:11:39.510Z,34.75
2023-05-08T11:14:13.773Z,30.95
2023-05-08T11:17:04.962Z,30.10
2023-05-08T11:19:32.195Z,35.67
2023-05-08T11:22:11.739Z,38.35
2023-05-08T11:24:53.826Z,38.05
2023-05-08T11:27:33.771Z,34.70
2023-05-08T11:30:24.525Z,39.60
2023-05-08T11:33:04.028Z,28.83
2023-05-08T11:35:47.372Z,26.92
2023-05-08T11:38:21.826Z,28.90
2023-05-08T11:41:04.239Z,30.85
2023-05-08T11:43:44.259Z,25.38
2023-05-08T11:46:19.657Z,31.58
2023-05-08T11:48:51.453Z,33.50
2023-05-08T11:51:21.843Z,38.22
2023-05-08T11:53:49.062Z,23.42
2023-05-08T11:56:16.204Z,26.95
2023-05-08T11:58:43.676Z,26.15
2023-05-08T12:01:12.777Z,24.30
2023-05-08T12:03:40.122Z,24.08
2023-05-08T12:06:07.654Z,29.88
2023-05-08T12:08:39.410Z,26.13
2023-05-08T12:11:07.739Z,20.83
2023-05-08T12:13:34.887Z,42.08
2023-05-08T12:16:02.156Z,28.95
2023-05-08T12:18:30.858Z,40.17
2023-05-08T12:21:01.472Z,23.50
2023-05-08T12:23:31.062Z,19.80
2023-05-08T12:26:05.173Z,16.35
2023-05-08T12:28:35.074Z,15.73
2023-05-08T12:31:02.592Z,21.73
2023-05-08T12:33:31.800Z,23.42
2023-05-08T12:35:58.891Z,20.17
2023-05-08T12:38:29.825Z,18.77
2023-05-08T12:40:56.875Z,22.33
2023-05-08T12:43:37.722Z,24.90
2023-05-08T12:46:05.558Z,27.65
2023-05-08T12:48:32.652Z,17.38
2023-05-08T12:51:04.811Z,25.58
2023-05-08T12:53:33.140Z,14.90
2023-05-08T12:56:04.998Z,20.05
2023-05-08T12:58:34.709Z,21.02
2023-05-08T13:01:13.245Z,17.38
2023-05-08T13:03:41.316Z,18.92
2023-05-08T13:06:21.093Z,17.40
2023-05-08T13:08:55.189Z,17.48
2023-05-08T13:11:33.247Z,15.10
2023-05-08T13:14:00.692Z,12.88
2023-05-08T13:16:27.754Z,13.25
2023-05-08T13:18:58.081Z,12.85
2023-05-08T13:21:27.649Z,12.52
2023-05-08T13:23:56.582Z,10.98
2023-05-08T13:26:24.652Z,10.25
2023-05-08T13:28:52.970Z,9.73
2023-05-08T13:31:21.765Z,11.45
2023-05-08T13:33:51.808Z,10.98
2023-05-08T13:36:18.945Z,10.27
2023-05-08T13:38:49.097Z,11.50
2023-05-08T13:41:26.767Z,11.05
2023-05-08T13:43:53.765Z,11.98
2023-05-08T13:46:21.157Z,12.82
2023-05-08T13:48:48.256Z,10.32
2023-05-08T13:51:18.671Z,10.43
2023-05-08T13:53:45.760Z,10.90
2023-05-08T13:56:18.153Z,12.90
2023-05-08T13:58:45.182Z,9.55
2023-05-08T14:01:25.728Z,13.32
2023-05-08T14:03:54.862Z,10.38
2023-05-08T14:06:22.746Z,9.32
2023-05-08T14:08:52.787Z,15.52
2023-05-08T14:11:22.337Z,8.95
2023-05-08T14:13:49.544Z,8.93
2023-05-08T14:16:16.675Z,8.73
2023-05-08T14:18:44.040Z,8.60
2023-05-08T14:21:11.002Z,6.75
2023-05-08T14:23:38.815Z,10.77
2023-05-08T14:26:05.972Z,6.40
2023-05-08T14:28:33.266Z,12.82
2023-05-08T14:31:03.837Z,8.20
2023-05-08T14:33:31.076Z,11.43
2023-05-08T14:35:58.071Z,7.88
2023-05-08T14:38:25.395Z,11.73
2023-05-08T14:40:54.415Z,8.18
2023-05-08T14:43:22.352Z,8.05
2023-05-08T14:45:49.860Z,6.43
2023-05-08T14:48:16.937Z,7.45
2023-05-08T14:50:44.049Z,9.45
2023-05-08T14:53:11.366Z,7.90
2023-05-08T14:55:38.822Z,7.05
2023-05-08T14:58:06.642Z,8.95
2023-05-08T15:00:33.762Z,13.13
2023-05-08T15:03:01.117Z,14.07
2023-05-08T15:05:28.520Z,11.38
2023-05-08T15:07:55.603Z,11.80
2023-05-08T15:10:22.817Z,11.93
2023-05-08T15:12:50.467Z,15.68
2023-05-08T15:15:17.676Z,12.40
2023-05-08T15:17:44.851Z,13.57
2023-05-08T15:20:12.090Z,20.67
2023-05-08T15:22:41.626Z,13.88
2023-05-08T15:25:08.924Z,15.85
2023-05-08T15:27:36.353Z,16.95
2023-05-08T15:30:04.704Z,18.17
2023-05-08T15:32:32.975Z,17.45
2023-05-08T15:34:59.938Z,14.02
2023-05-08T15:37:27.476Z,15.90
2023-05-08T15:39:54.347Z,21.45
2023-05-08T15:42:21.368Z,19.58
2023-05-08T15:47:19.464Z,16.75
2023-05-08T15:49:49.252Z,17.75
2023-05-08T15:52:19.737Z,14.82
2023-05-08T15:54:47.556Z,14.32
2023-05-08T15:57:14.821Z,15.07
2023-05-08T15:59:41.901Z,16.73
2023-05-08T16:02:10.347Z,17.63
2023-05-08T16:04:37.463Z,17.85
2023-05-08T16:07:09.927Z,15.27
2023-05-08T16:09:37.058Z,13.43
2023-05-08T16:12:05.765Z,13.13
2023-05-08T16:14:36.830Z,14.00
2023-05-08T16:17:09.326Z,15.68
2023-05-08T16:19:40.871Z,11.95
2023-05-08T16:22:08.014Z,13.57
2023-05-08T16:24:34.871Z,12.93
2023-05-08T16:27:01.902Z,15.27
2023-05-08T16:29:28.726Z,14.13
2023-05-08T16:31:56.376Z,17.92
2023-05-08T16:34:23.284Z,13.43
2023-05-08T16:36:50.485Z,16.75
2023-05-08T16:39:17.529Z,18.23
2023-05-08T16:41:44.704Z,16.85
2023-05-08T16:44:12.509Z,12.45
2023-05-08T16:46:39.499Z,15.52
2023-05-08T16:49:06.544Z,17.13
2023-05-08T16:51:33.407Z,12.65
2023-05-08T16:54:00.631Z,15.68
2023-05-08T16:56:27.469Z,14.45
2023-05-08T16:58:54.412Z,14.23
2023-05-08T17:01:21.529Z,18.13
2023-05-08T17:03:48.500Z,12.00
2023-05-08T17:06:15.356Z,17.08
2023-05-08T17:08:42.375Z,14.20
2023-05-08T17:11:09.177Z,10.88
2023-05-08T17:13:36.081Z,17.65
2023-05-08T17:16:05.302Z,10.60
2023-05-08T17:18:32.438Z,9.07
2023-05-08T17:20:59.306Z,10.20
2023-05-08T17:23:26.149Z,14.50
2023-05-08T17:26:00.226Z,12.82
2023-05-08T17:28:27.184Z,14.73
2023-05-08T17:30:54.386Z,12.68
2023-05-08T17:33:21.219Z,13.02
2023-05-08T17:35:48.204Z,13.63
2023-05-08T17:38:15.034Z,11.82
2023-05-08T17:40:41.914Z,15.18
2023-05-08T17:43:08.817Z,12.75
2023-05-08T17:45:35.635Z,10.07
2023-05-08T17:48:04.431Z,12.15
2023-05-08T17:50:31.340Z,14.43
2023-05-08T17:52:58.220Z,16.73
2023-05-08T17:55:25.197Z,11.93
2023-05-08T17:57:53.383Z,17.02
2023-05-08T18:00:20.325Z,13.32
2023-05-08T18:02:47.203Z,16.40
2023-05-08T18:05:15.826Z,12.85
2023-05-08T18:07:46.720Z,10.57
2023-05-08T18:10:13.824Z,11.93
2023-05-08T18:12:40.886Z,13.27
2023-05-08T18:15:08.323Z,14.30
2023-05-08T18:17:35.266Z,13.48
2023-05-08T18:20:07.592Z,14.43
2023-05-08T18:22:35.056Z,11.38
2023-05-08T18:25:02.112Z,10.52
2023-05-08T18:27:29.125Z,13.93
2023-05-08T18:29:55.973Z,14.75
2023-05-08T18:32:23.049Z,18.05
2023-05-08T18:34:49.995Z,16.38
2023-05-08T18:37:16.937Z,16.38
2023-05-08T18:39:43.783Z,13.63
2023-05-08T18:42:11.365Z,14.38
2023-05-08T18:44:38.170Z,16.17
2023-05-08T18:47:05.557Z,9.25
2023-05-08T18:49:32.826Z,12.35
2023-05-08T18:51:59.752Z,10.32
2023-05-08T18:54:26.974Z,13.43
2023-05-08T18:56:54.428Z,10.50
2023-05-08T18:59:21.905Z,9.27
2023-05-08T19:01:50.604Z,11.93
2023-05-08T19:04:18.128Z,8.60
2023-05-08T19:06:45.194Z,11.75
2023-05-08T19:09:12.034Z,10.27
2023-05-08T19:11:38.881Z,8.90
2023-05-08T19:14:05.777Z,10.20
2023-05-08T19:16:32.825Z,8.45
2023-05-08T19:18:59.716Z,8.23
2023-05-08T19:21:26.520Z,8.30
2023-05-08T19:23:53.270Z,8.52
2023-05-08T19:26:21.700Z,9.88
2023-05-08T19:28:48.514Z,9.70
2023-05-08T19:31:15.338Z,10.38
2023-05-08T19:33:42.306Z,8.68
2023-05-08T19:36:09.149Z,9.63
2023-05-08T19:38:37.491Z,10.90
2023-05-08T19:41:04.259Z,9.30
2023-05-08T19:43:31.157Z,8.43
2023-05-08T19:45:57.970Z,8.18
2023-05-08T19:48:24.926Z,9.13
2023-05-08T19:50:54.610Z,7.97
2023-05-08T19:53:22.751Z,10.80
2023-05-08T19:55:49.524Z,9.38
2023-05-08T19:58:17.424Z,9.20
2023-05-08T20:00:50.931Z,8.80
2023-05-08T20:03:18.215Z,10.93
2023-05-08T20:05:45.087Z,13.05
2023-05-08T20:08:11.986Z,8.82
2023-05-08T20:10:38.803Z,9.57
2023-05-08T20:13:05.882Z,13.68
2023-05-08T20:15:32.740Z,13.60
2023-05-08T20:17:59.777Z,11.88
2023-05-08T20:20:29.247Z,8.07
2023-05-08T20:22:56.412Z,9.63
2023-05-08T20:25:23.355Z,15.07
2023-05-08T20:27:50.118Z,10.55
2023-05-08T20:30:17.037Z,9.73
2023-05-08T20:32:43.952Z,8.80
2023-05-08T20:35:10.929Z,8.05
2023-05-08T20:37:48.153Z,11.18
2023-05-08T20:40:15.561Z,11.90
2023-05-08T20:42:42.588Z,10.75
2023-05-08T20:45:10.530Z,10.60
2023-05-08T20:47:37.476Z,12.02
2023-05-08T20:50:04.866Z,8.43
2023-05-08T20:52:32.295Z,8.43
2023-05-08T20:54:59.533Z,9.73
2023-05-08T20:57:26.838Z,9.30
2023-05-08T20:59:53.991Z,10.32
2023-05-08T21:02:21.158Z,12.95
2023-05-08T21:04:48.076Z,7.40
2023-05-08T21:07:14.966Z,8.25
2023-05-08T21:09:41.834Z,8.82
2023-05-08T21:12:09.780Z,5.88
2023-05-08T21:14:37.317Z,13.90
2023-05-08T21:17:04.284Z,8.43
2023-05-08T21:19:32.041Z,9.15
2023-05-08T21:21:58.909Z,12.45
2023-05-08T21:24:26.779Z,8.60
2023-05-08T21:26:53.864Z,8.05
2023-05-08T21:29:20.913Z,13.50
2023-05-08T21:31:47.714Z,9.88
2023-05-08T21:34:15.311Z,10.10
2023-05-08T21:36:42.237Z,10.88
2023-05-08T21:39:09.354Z,15.10
2023-05-08T21:41:36.220Z,7.88
2023-05-08T21:44:03.065Z,17.52
2023-05-08T21:46:29.983Z,8.82
2023-05-08T21:48:56.862Z,11.52
2023-05-08T21:51:23.720Z,11.10
2023-05-08T21:53:51.015Z,10.75
2023-05-08T21:56:17.908Z,10.65
2023-05-08T21:58:44.744Z,12.57
2023-05-08T22:01:12.126Z,15.40
2023-05-08T22:03:39.073Z,11.00
2023-05-08T22:06:06.284Z,11.95
2023-05-08T22:08:33.191Z,9.00
2023-05-08T22:11:00.032Z,13.65
2023-05-08T22:13:27.185Z,10.10
2023-05-08T22:15:54.206Z,12.10
2023-05-08T22:18:21.174Z,11.25
2023-05-08T22:20:48.063Z,11.93
2023-05-08T22:23:14.971Z,11.77
2023-05-08T22:25:41.903Z,8.43
2023-05-08T22:28:12.039Z,9.43
2023-05-08T22:30:38.857Z,8.40
2023-05-08T22:33:06.041Z,11.90
2023-05-08T22:35:39.156Z,11.45
2023-05-08T22:38:06.004Z,7.63
2023-05-08T22:40:33.527Z,11.07
2023-05-08T22:43:00.609Z,9.60
2023-05-08T22:45:27.937Z,9.35
2023-05-08T22:47:55.225Z,10.80
2023-05-08T22:50:22.138Z,9.55
2023-05-08T22:52:49.028Z,11.25
2023-05-08T22:55:16.581Z,10.77
2023-05-08T22:57:43.788Z,9.63
2023-05-08T23:00:11.416Z,11.00
2023-05-08T23:02:38.337Z,10.55
2023-05-08T23:05:06.719Z,13.13
2023-05-08T23:07:33.504Z,6.70
2023-05-08T23:10:00.315Z,12.32
2023-05-08T23:12:27.091Z,10.88
2023-05-08T23:14:53.995Z,10.63
2023-05-08T23:17:20.788Z,10.18
2023-05-08T23:19:47.739Z,13.15
2023-05-08T23:22:14.579Z,10.25
2023-05-08T23:24:41.409Z,14.30
2023-05-08T23:27:08.266Z,12.20
2023-05-08T23:29:35.002Z,13.93
2023-05-08T23:32:01.779Z,11.43
2023-05-08T23:34:28.586Z,11.27
2023-05-08T23:36:55.623Z,12.10
2023-05-08T23:39:22.556Z,12.43
2023-05-08T23:41:49.475Z,16.83
2023-05-08T23:44:17.381Z,16.75
2023-05-08T23:46:44.387Z,11.82
2023-05-08T23:49:11.378Z,12.73
2023-05-08T23:51:38.179Z,9.57
2023-05-08T23:54:05.637Z,16.65
2023-05-08T23:56:32.902Z,16.83
2023-05-08T23:58:59.635Z,10.05
